Last 24 Hours

O'Neill Sea Odyssey

Hourly Data | America/Los_Angeles
as of 9/28/22 12:23 AM PDT
Date & Time Temp (°F) RH (%) Dew Pt (°F) Wind Dir (°) Wind Spd (mph) Wind Gust (mph) Latest Rain (In) Daily Rain (In) Daily Min Temp (°F) Daily Max Temp (°F) Daily Max Wind (mph)
9/28/22 - 0000 59.1 93 57.0 WNW | 300 2.2 5.9 0.00 0.00 53.7 70.5 20.0
9/27/22 - 2300 59.8 92 57.6 WSW | 252 5.7 8.8 0.00 0.00 53.7 70.5 20.0
9/27/22 - 2200 61.4 85 56.9 WNW | 286 1.5 4.6 0.00 0.00 53.7 70.5 20.0
9/27/22 - 2100 62.7 81 57.0 NE | 52 1.9 5.3 0.00 0.00 53.7 70.5 20.0
9/27/22 - 2000 62.3 89 58.9 E | 88 2.6 7.5 0.00 0.00 53.7 70.5 20.0
9/27/22 - 1900 64.5 79 57.9 SSE | 167 4.8 8.1 0.00 0.00 53.7 70.5 20.0
9/27/22 - 1800 69.6 60 55.1 ENE | 65 4.6 9.4 0.00 0.00 53.7 70.5 20.0
9/27/22 - 1700 69.1 64 56.5 SSE | 153 4.8 10.3 0.00 0.00 53.7 70.4 20.0
9/27/22 - 1600 67.4 72 58.0 SW | 215 6.2 10.1 0.00 0.00 53.7 69.1 20.0
9/27/22 - 1500 66.4 74 57.6 SW | 226 9.1 14.2 0.00 0.00 53.7 67.5 20.0
9/27/22 - 1400 61.7 82 56.2 SW | 224 13.0 20.0 0.00 0.00 53.7 65.3 20.0
9/27/22 - 1300 58.3 90 55.4 SSW | 212 9.8 13.4 0.00 0.00 53.7 59.8 13.4
9/27/22 - 1200 58.5 89 55.3 SE | 146 5.8 9.6 0.00 0.00 53.7 59.4 9.9
9/27/22 - 1100 56.9 91 54.4 SSW | 204 1.6 6.4 0.00 0.00 53.7 58.5 9.9
9/27/22 - 1000 54.8 95 53.4 NNW | 342 3.7 7.2 0.00 0.00 53.7 58.0 9.9
9/27/22 - 0900 54.2 94 52.5 NNW | 339 5.6 9.9 0.00 0.00 53.7 58.0 9.9
9/27/22 - 0800 54.6 94 52.8 NNW | 338 5.2 9.0 0.00 0.00 53.7 58.0 9.0
9/27/22 - 0700 56.1 95 54.7 NE | 46 3.4 6.8 0.00 0.00 55.5 58.0 7.5
9/27/22 - 0600 56.7 95 55.3 NNE | 22 3.1 7.5 0.00 0.00 56.1 58.0 7.5
9/27/22 - 0500 57.2 96 56.2 ESE | 102 2.3 5.3 0.00 0.00 56.8 58.0 6.8
9/27/22 - 0400 57.4 97 56.6 SSW | 200 1.9 5.7 0.00 0.00 56.8 58.0 6.8
9/27/22 - 0300 57.5 96 56.4 ESE | 121 3.1 5.9 0.00 0.00 57.2 58.0 6.8
9/27/22 - 0200 57.8 96 56.6 ESE | 111 3.6 6.8 0.00 0.00 57.4 58.0 6.8
9/27/22 - 0100 58.1 95 56.9 E | 99 2.8 6.8 0.00 0.00 56.8 64.9 19.1
9/27/22 - 0000 58.3 95 56.8 SE | 127 1.9 6.4 0.00 0.00 56.8 64.9 19.1
Max 69.6 97 58.9 - 13.0 20.0 0.00 0.00 57.4 70.5 20.0
Avg 60.0 88 56.1 - 4.4 8.4 0.00 - - - -
Min 54.2 60 52.5 - 1.5 4.6 0.00 0.00 53.7 58.0 6.8
Total - - - - - - 0.00 - - - -